Time;durP1;ratioP1;P1;durP2;ratioP2;P2;SDS_P1;SDS_P2;PMS_P1;PMS_P2;Temp;Humidity;BMP_temperature;BMP_pressure;BME280_temperature;BME280_humidity;BME280_pressure;Samples;Min_cycle;Max_cycle;Signal;HPM_P1;HPM_P2
2023/10/17 00:00:12;;;;;;;0.00;0.00;;;;;;;;;;4989401;28;20044;-70
2023/10/17 00:02:40;;;;;;;0.00;0.00;;;;;;;;;;4992525;28;20073;-71
2023/10/17 00:05:09;;;;;;;0.00;0.00;;;;;;;;;;4992164;28;20045;-71
2023/10/17 00:07:35;;;;;;;0.00;0.00;;;;;;;;;;4993599;28;20121;-71
2023/10/17 00:10:01;;;;;;;0.00;0.00;;;;;;;;;;4987920;28;20046;-71
2023/10/17 00:12:39;;;;;;;0.00;0.00;;;;;;;;;;4985458;28;20536;-70
2023/10/17 00:15:20;;;;;;;0.00;0.00;;;;;;;;;;4986813;28;20148;-70
2023/10/17 00:17:46;;;;;;;0.00;0.00;;;;;;;;;;4991110;28;20038;-71
2023/10/17 00:20:17;;;;;;;0.00;0.00;;;;;;;;;;4989987;28;20042;-70
2023/10/17 00:22:43;;;;;;;0.00;0.00;;;;;;;;;;4990400;28;20034;-71
2023/10/17 00:25:10;;;;;;;0.00;0.00;;;;;;;;;;4983546;28;20067;-70
2023/10/17 00:27:36;;;;;;;0.00;0.00;;;;;;;;;;4987144;28;20046;-71
2023/10/17 00:30:02;;;;;;;0.00;0.00;;;;;;;;;;4987293;28;20391;-70
2023/10/17 00:32:31;;;;;;;0.00;0.00;;;;;;;;;;4999477;28;20034;-70
2023/10/17 00:34:57;;;;;;;0.00;0.00;;;;;;;;;;5005814;28;20045;-71
2023/10/17 00:37:30;;;;;;;0.00;0.00;;;;;;;;;;4984564;28;20041;-71
2023/10/17 00:39:59;;;;;;;0.00;0.00;;;;;;;;;;4986384;28;20038;-71
2023/10/17 00:42:29;;;;;;;0.00;0.00;;;;;;;;;;4985767;28;20834;-71
2023/10/17 00:44:55;;;;;;;0.00;0.00;;;;;;;;;;4984132;28;20068;-71
2023/10/17 00:47:22;;;;;;;0.00;0.00;;;;;;;;;;4982341;28;20062;-71
2023/10/17 00:49:50;;;;;;;0.00;0.00;;;;;;;;;;4990308;28;20045;-71
2023/10/17 00:52:24;;;;;;;0.00;0.00;;;;;;;;;;4982714;28;20117;-71
2023/10/17 00:54:51;;;;;;;0.00;0.00;;;;;;;;;;4990414;28;20584;-72
2023/10/17 00:57:17;;;;;;;0.00;0.00;;;;;;;;;;4984940;28;20434;-72
2023/10/17 01:00:36;;;;;;;0.00;0.00;;;;;;;;;;4987295;28;20042;-72
2023/10/17 01:02:44;;;;;;;0.00;0.00;;;;;;;;;;4990027;28;20411;-71
2023/10/17 01:05:12;;;;;;;0.00;0.00;;;;;;;;;;4985297;28;20034;-71
2023/10/17 01:07:40;;;;;;;0.00;0.00;;;;;;;;;;4987283;28;20077;-72
2023/10/17 01:10:10;;;;;;;0.00;0.00;;;;;;;;;;4987637;28;20034;-72
2023/10/17 01:12:40;;;;;;;0.00;0.00;;;;;;;;;;4983887;28;20861;-71
2023/10/17 01:15:07;;;;;;;0.00;0.00;;;;;;;;;;4982562;28;20137;-71
2023/10/17 01:17:35;;;;;;;0.00;0.00;;;;;;;;;;4985752;28;20038;-71
2023/10/17 01:20:07;;;;;;;0.00;0.00;;;;;;;;;;4987599;28;20193;-71
2023/10/17 01:22:33;;;;;;;0.00;0.00;;;;;;;;;;4993565;28;20546;-72
2023/10/17 01:25:17;;;;;;;0.00;0.00;;;;;;;;;;4988047;28;20855;-72
2023/10/17 01:27:44;;;;;;;0.00;0.00;;;;;;;;;;4995113;28;20070;-72
2023/10/17 01:30:11;;;;;;;0.00;0.00;;;;;;;;;;4985936;28;20033;-71
2023/10/17 01:32:37;;;;;;;0.00;0.00;;;;;;;;;;4985821;28;20058;-71
2023/10/17 01:35:03;;;;;;;0.00;0.00;;;;;;;;;;4986685;28;20568;-72
2023/10/17 01:37:29;;;;;;;0.00;0.00;;;;;;;;;;4984900;28;20125;-71
2023/10/17 01:39:55;;;;;;;0.00;0.00;;;;;;;;;;4983677;28;20082;-72
2023/10/17 01:42:21;;;;;;;0.00;0.00;;;;;;;;;;4981765;28;20527;-72
2023/10/17 01:44:47;;;;;;;0.00;0.00;;;;;;;;;;4986011;28;20046;-71
2023/10/17 01:47:14;;;;;;;0.00;0.00;;;;;;;;;;4986486;28;20041;-73
2023/10/17 01:49:40;;;;;;;0.00;0.00;;;;;;;;;;4986937;28;20034;-71
2023/10/17 01:52:08;;;;;;;0.00;0.00;;;;;;;;;;4983625;28;20050;-71
2023/10/17 01:54:36;;;;;;;0.00;0.00;;;;;;;;;;4982817;28;20077;-72
2023/10/17 01:57:06;;;;;;;0.00;0.00;;;;;;;;;;4982797;28;20194;-68
2023/10/17 01:59:34;;;;;;;0.00;0.00;;;;;;;;;;4988327;28;20489;-67
2023/10/17 02:02:03;;;;;;;0.00;0.00;;;;;;;;;;4988490;28;20040;-68
2023/10/17 02:04:30;;;;;;;0.00;0.00;;;;;;;;;;4998889;28;20038;-67
2023/10/17 02:06:56;;;;;;;0.00;0.00;;;;;;;;;;4989179;28;20033;-68
2023/10/17 02:09:24;;;;;;;0.00;0.00;;;;;;;;;;4983605;28;20069;-67
2023/10/17 02:11:52;;;;;;;0.00;0.00;;;;;;;;;;4983163;28;20041;-68
2023/10/17 02:14:18;;;;;;;0.00;0.00;;;;;;;;;;4980874;28;20144;-67
2023/10/17 02:16:44;;;;;;;0.00;0.00;;;;;;;;;;4987552;28;20042;-67
2023/10/17 02:19:10;;;;;;;0.00;0.00;;;;;;;;;;4984582;28;20047;-67
2023/10/17 02:21:39;;;;;;;0.00;0.00;;;;;;;;;;4986548;28;20073;-67
2023/10/17 02:24:06;;;;;;;0.00;0.00;;;;;;;;;;4988939;28;20551;-67
2023/10/17 02:26:41;;;;;;;0.00;0.00;;;;;;;;;;4984031;28;20030;-67
2023/10/17 02:29:11;;;;;;;0.00;0.00;;;;;;;;;;4982008;28;20069;-67
2023/10/17 02:31:37;;;;;;;0.00;0.00;;;;;;;;;;4983959;28;20042;-67
2023/10/17 02:34:03;;;;;;;0.00;0.00;;;;;;;;;;4980365;28;20628;-68
2023/10/17 02:36:29;;;;;;;0.00;0.00;;;;;;;;;;4982077;28;20046;-67
2023/10/17 02:38:56;;;;;;;0.00;0.00;;;;;;;;;;4981444;28;20038;-67
2023/10/17 02:41:22;;;;;;;0.00;0.00;;;;;;;;;;4983979;28;20058;-67
2023/10/17 02:43:53;;;;;;;0.00;0.00;;;;;;;;;;4987245;28;20735;-67
2023/10/17 02:46:20;;;;;;;0.00;0.00;;;;;;;;;;4978764;28;20030;-67
2023/10/17 02:48:46;;;;;;;0.00;0.00;;;;;;;;;;4986372;28;20042;-67
2023/10/17 02:53:51;;;;;;;0.00;0.00;;;;;;;;;;4988286;28;20618;-67
2023/10/17 02:56:18;;;;;;;0.00;0.00;;;;;;;;;;4979745;28;20034;-67
2023/10/17 02:59:06;;;;;;;0.00;0.00;;;;;;;;;;4985918;28;20061;-67
2023/10/17 03:01:36;;;;;;;0.00;0.00;;;;;;;;;;4993235;28;20033;-67
2023/10/17 03:04:23;;;;;;;0.00;0.00;;;;;;;;;;4987012;28;20058;-67
2023/10/17 03:06:49;;;;;;;0.00;0.00;;;;;;;;;;4983942;28;20037;-67
2023/10/17 03:11:50;;;;;;;0.00;0.00;;;;;;;;;;4987716;28;20045;-67
2023/10/17 03:14:19;;;;;;;0.00;0.00;;;;;;;;;;4983314;28;20076;-67
2023/10/17 03:16:52;;;;;;;0.00;0.00;;;;;;;;;;4982825;28;20041;-67
2023/10/17 03:19:28;;;;;;;0.00;0.00;;;;;;;;;;4981197;28;20395;-67
2023/10/17 03:21:54;;;;;;;0.00;0.00;;;;;;;;;;4984249;28;20133;-67
2023/10/17 03:24:28;;;;;;;0.00;0.00;;;;;;;;;;4983442;28;20069;-66
2023/10/17 03:26:55;;;;;;;0.00;0.00;;;;;;;;;;4989602;28;20108;-66
2023/10/17 03:29:23;;;;;;;0.00;0.00;;;;;;;;;;4983975;28;20042;-67
2023/10/17 03:31:58;;;;;;;0.00;0.00;;;;;;;;;;4982322;28;20494;-67
2023/10/17 03:34:35;;;;;;;0.00;0.00;;;;;;;;;;4984375;28;20446;-67
2023/10/17 03:39:54;;;;;;;0.00;0.00;;;;;;;;;;4985286;28;20162;-67
2023/10/17 03:42:43;;;;;;;0.00;0.00;;;;;;;;;;4977796;28;20034;-67
2023/10/17 03:45:16;;;;;;;0.00;0.00;;;;;;;;;;4980440;28;20046;-67
2023/10/17 03:47:46;;;;;;;0.00;0.00;;;;;;;;;;4981714;28;20065;-67
2023/10/17 03:50:14;;;;;;;0.00;0.00;;;;;;;;;;4987771;28;20038;-67
2023/10/17 03:52:45;;;;;;;0.00;0.00;;;;;;;;;;4984065;28;20053;-67
2023/10/17 03:55:11;;;;;;;0.00;0.00;;;;;;;;;;4985957;28;20039;-67
2023/10/17 03:57:52;;;;;;;0.00;0.00;;;;;;;;;;4979971;28;20039;-67
2023/10/17 04:01:01;;;;;;;0.00;0.00;;;;;;;;;;4978644;28;20042;-67
2023/10/17 04:03:19;;;;;;;0.00;0.00;;;;;;;;;;4983113;28;20852;-67
2023/10/17 04:05:49;;;;;;;0.00;0.00;;;;;;;;;;4982592;28;20294;-67
2023/10/17 04:08:17;;;;;;;0.00;0.00;;;;;;;;;;4981330;28;20490;-67
2023/10/17 04:11:07;;;;;;;0.00;0.00;;;;;;;;;;4988936;28;20042;-67
2023/10/17 04:13:37;;;;;;;0.00;0.00;;;;;;;;;;4992971;28;20141;-67
2023/10/17 04:16:49;;;;;;;0.00;0.00;;;;;;;;;;4985376;28;20042;-68
2023/10/17 04:18:59;;;;;;;0.00;0.00;;;;;;;;;;4977058;28;20410;-67
2023/10/17 04:21:32;;;;;;;0.00;0.00;;;;;;;;;;4985801;28;20521;-67
2023/10/17 04:24:05;;;;;;;0.00;0.00;;;;;;;;;;4984668;28;20093;-67
2023/10/17 04:26:34;;;;;;;0.00;0.00;;;;;;;;;;4991762;28;20760;-67
2023/10/17 04:29:10;;;;;;;0.00;0.00;;;;;;;;;;4986703;28;20706;-67
2023/10/17 04:31:37;;;;;;;0.00;0.00;;;;;;;;;;4982654;28;20037;-67
2023/10/17 04:34:14;;;;;;;0.00;0.00;;;;;;;;;;4985193;28;20034;-67
2023/10/17 04:36:41;;;;;;;0.00;0.00;;;;;;;;;;4985699;28;20081;-68
2023/10/17 04:39:34;;;;;;;0.00;0.00;;;;;;;;;;4979799;28;20419;-68
2023/10/17 04:44:38;;;;;;;0.00;0.00;;;;;;;;;;4979867;28;19928;-67
2023/10/17 04:49:51;;;;;;;0.00;0.00;;;;;;;;;;4984485;28;20019;-67
2023/10/17 04:52:51;;;;;;;0.00;0.00;;;;;;;;;;4978071;28;20174;-67
2023/10/17 04:55:21;;;;;;;0.00;0.00;;;;;;;;;;4980151;28;20048;-68
2023/10/17 05:03:14;;;;;;;0.00;0.00;;;;;;;;;;4983864;28;20639;-67
2023/10/17 05:08:18;;;;;;;0.00;0.00;;;;;;;;;;4979234;28;20505;-71
2023/10/17 06:16:53;;;;;;;0.00;0.00;;;;;;;;;;4983101;28;20041;-67
2023/10/17 06:19:24;;;;;;;0.00;0.00;;;;;;;;;;4972129;28;20042;-68
2023/10/17 06:34:47;;;;;;;0.00;0.00;;;;;;;;;;4987368;28;20026;-68
2023/10/17 06:37:20;;;;;;;0.00;0.00;;;;;;;;;;4986166;28;20038;-68
2023/10/17 06:39:49;;;;;;;0.00;0.00;;;;;;;;;;4982119;28;20041;-68
2023/10/17 06:42:18;;;;;;;0.00;0.00;;;;;;;;;;4977236;28;20538;-68
2023/10/17 06:44:54;;;;;;;0.00;0.00;;;;;;;;;;4980531;28;20495;-68
2023/10/17 06:47:41;;;;;;;0.00;0.00;;;;;;;;;;4975064;28;20030;-67
2023/10/17 06:55:35;;;;;;;0.00;0.00;;;;;;;;;;4978990;28;20499;-68
2023/10/17 06:58:10;;;;;;;0.00;0.00;;;;;;;;;;4981780;28;20033;-67
2023/10/17 07:00:52;;;;;;;0.00;0.00;;;;;;;;;;4978503;28;20046;-67
2023/10/17 07:03:25;;;;;;;0.00;0.00;;;;;;;;;;4979556;28;20045;-68
2023/10/17 07:06:03;;;;;;;0.00;0.00;;;;;;;;;;4984050;28;20034;-68
2023/10/17 07:08:36;;;;;;;0.00;0.00;;;;;;;;;;4989202;28;20038;-68
2023/10/17 07:16:33;;;;;;;0.00;0.00;;;;;;;;;;4989405;28;20154;-68
2023/10/17 07:24:33;;;;;;;0.00;0.00;;;;;;;;;;4984010;28;20110;-68
2023/10/17 07:26:59;;;;;;;0.00;0.00;;;;;;;;;;4982458;28;20064;-69
2023/10/17 07:29:25;;;;;;;0.00;0.00;;;;;;;;;;4979983;28;20501;-68
2023/10/17 07:32:01;;;;;;;0.00;0.00;;;;;;;;;;4992937;28;20034;-68
2023/10/17 07:34:33;;;;;;;0.00;0.00;;;;;;;;;;4981010;28;20058;-68
2023/10/17 07:39:38;;;;;;;0.00;0.00;;;;;;;;;;4984632;28;20173;-68
2023/10/17 07:42:04;;;;;;;0.00;0.00;;;;;;;;;;4982857;28;20038;-68
2023/10/17 07:44:41;;;;;;;0.00;0.00;;;;;;;;;;4984525;28;20151;-69
2023/10/17 07:49:35;;;;;;;0.00;0.00;;;;;;;;;;4985168;28;20408;-68
2023/10/17 07:52:01;;;;;;;0.00;0.00;;;;;;;;;;4985799;28;20045;-68
2023/10/17 07:54:30;;;;;;;0.00;0.00;;;;;;;;;;4986036;28;20695;-68
2023/10/17 07:56:58;;;;;;;0.00;0.00;;;;;;;;;;4978375;28;20386;-68
2023/10/17 07:59:34;;;;;;;0.00;0.00;;;;;;;;;;4989307;28;20060;-68
2023/10/17 08:02:00;;;;;;;0.00;0.00;;;;;;;;;;4990019;28;20051;-68
2023/10/17 08:04:36;;;;;;;0.00;0.00;;;;;;;;;;4988514;28;20042;-69
2023/10/17 08:07:03;;;;;;;0.00;0.00;;;;;;;;;;4986138;28;20053;-69
2023/10/17 08:09:36;;;;;;;0.00;0.00;;;;;;;;;;4997822;28;20041;-69
2023/10/17 08:12:08;;;;;;;0.00;0.00;;;;;;;;;;4986947;28;20041;-69
2023/10/17 08:14:41;;;;;;;0.00;0.00;;;;;;;;;;4986034;28;20053;-69
2023/10/17 08:17:09;;;;;;;0.00;0.00;;;;;;;;;;4977550;28;20043;-69
2023/10/17 08:22:20;;;;;;;0.00;0.00;;;;;;;;;;4988475;28;20100;-69
2023/10/17 08:24:51;;;;;;;0.00;0.00;;;;;;;;;;4986778;28;20089;-68
2023/10/17 08:27:41;;;;;;;0.00;0.00;;;;;;;;;;4984224;28;20583;-69
2023/10/17 08:30:23;;;;;;;0.00;0.00;;;;;;;;;;4982845;28;20050;-68
2023/10/17 08:33:11;;;;;;;0.00;0.00;;;;;;;;;;4984664;28;20123;-70
2023/10/17 08:35:40;;;;;;;0.00;0.00;;;;;;;;;;4996873;28;20490;-72
2023/10/17 08:38:06;;;;;;;0.00;0.00;;;;;;;;;;4984287;28;20152;-72
2023/10/17 08:40:40;;;;;;;0.00;0.00;;;;;;;;;;4981584;28;20350;-73
2023/10/17 08:43:19;;;;;;;0.00;0.00;;;;;;;;;;4998091;28;20113;-73
2023/10/17 08:45:50;;;;;;;0.00;0.00;;;;;;;;;;4985629;28;20462;-72
2023/10/17 08:48:19;;;;;;;0.00;0.00;;;;;;;;;;4991164;28;20042;-73
2023/10/17 08:50:45;;;;;;;0.00;0.00;;;;;;;;;;4985905;28;20049;-73
2023/10/17 08:53:13;;;;;;;0.00;0.00;;;;;;;;;;4983935;28;20041;-73
2023/10/17 08:55:40;;;;;;;0.00;0.00;;;;;;;;;;4979970;28;20757;-73
2023/10/17 08:58:08;;;;;;;0.00;0.00;;;;;;;;;;4982698;28;20045;-73
2023/10/17 09:00:49;;;;;;;0.00;0.00;;;;;;;;;;4981463;28;20430;-73
2023/10/17 09:03:28;;;;;;;0.00;0.00;;;;;;;;;;4982244;28;20040;-73
2023/10/17 09:05:58;;;;;;;0.00;0.00;;;;;;;;;;4985115;28;20049;-74
2023/10/17 09:11:15;;;;;;;0.00;0.00;;;;;;;;;;4980208;28;20041;-73
2023/10/17 09:16:13;;;;;;;0.00;0.00;;;;;;;;;;4985151;28;20161;-73
2023/10/17 09:18:47;;;;;;;0.00;0.00;;;;;;;;;;4982787;28;20489;-73
2023/10/17 09:21:13;;;;;;;0.00;0.00;;;;;;;;;;4980803;28;20066;-71
2023/10/17 09:23:41;;;;;;;0.00;0.00;;;;;;;;;;4982631;28;20038;-72
2023/10/17 09:26:09;;;;;;;0.00;0.00;;;;;;;;;;4976866;28;20038;-73
2023/10/17 09:28:36;;;;;;;0.00;0.00;;;;;;;;;;4978886;28;20037;-73
2023/10/17 09:31:09;;;;;;;0.00;0.00;;;;;;;;;;4976859;28;20129;-72
2023/10/17 09:33:43;;;;;;;0.00;0.00;;;;;;;;;;4983312;28;20039;-73
2023/10/17 09:36:09;;;;;;;0.00;0.00;;;;;;;;;;4982323;28;20045;-73
2023/10/17 09:38:45;;;;;;;0.00;0.00;;;;;;;;;;4983801;28;20042;-72
2023/10/17 09:41:18;;;;;;;0.00;0.00;;;;;;;;;;4975637;28;20077;-74
2023/10/17 09:43:45;;;;;;;0.00;0.00;;;;;;;;;;4987253;28;20049;-73
2023/10/17 09:46:14;;;;;;;0.00;0.00;;;;;;;;;;4976898;28;20467;-70
2023/10/17 09:48:42;;;;;;;0.00;0.00;;;;;;;;;;4983316;28;20034;-70
2023/10/17 09:51:13;;;;;;;0.00;0.00;;;;;;;;;;4984321;28;20088;-70
2023/10/17 09:53:41;;;;;;;0.00;0.00;;;;;;;;;;4981315;28;20042;-71
2023/10/17 09:56:08;;;;;;;0.00;0.00;;;;;;;;;;4978678;28;20505;-70
2023/10/17 09:58:37;;;;;;;0.00;0.00;;;;;;;;;;4981060;28;20042;-71
2023/10/17 10:01:13;;;;;;;0.00;0.00;;;;;;;;;;5000287;28;20341;-71
2023/10/17 10:03:40;;;;;;;0.00;0.00;;;;;;;;;;4987344;28;20043;-71
2023/10/17 10:06:32;;;;;;;0.00;0.00;;;;;;;;;;4988188;28;20045;-71
2023/10/17 10:09:01;;;;;;;0.00;0.00;;;;;;;;;;4976919;28;20046;-71
2023/10/17 10:11:46;;;;;;;0.00;0.00;;;;;;;;;;4986260;28;20137;-71
2023/10/17 10:14:12;;;;;;;0.00;0.00;;;;;;;;;;4982275;28;20108;-71
2023/10/17 10:17:03;;;;;;;0.00;0.00;;;;;;;;;;4981106;28;20046;-71
2023/10/17 10:19:41;;;;;;;0.00;0.00;;;;;;;;;;4983532;28;20042;-70
2023/10/17 10:22:10;;;;;;;0.00;0.00;;;;;;;;;;4972366;28;20046;-71
2023/10/17 10:24:39;;;;;;;0.00;0.00;;;;;;;;;;4980262;28;20113;-70
2023/10/17 10:29:37;;;;;;;0.00;0.00;;;;;;;;;;4984646;28;20413;-70
2023/10/17 10:32:07;;;;;;;0.00;0.00;;;;;;;;;;4982763;28;20047;-71
2023/10/17 10:34:37;;;;;;;0.00;0.00;;;;;;;;;;4981028;28;20038;-71
2023/10/17 10:37:08;;;;;;;0.00;0.00;;;;;;;;;;4981050;28;20034;-71
2023/10/17 10:39:35;;;;;;;0.00;0.00;;;;;;;;;;4986249;28;20038;-70
2023/10/17 10:42:05;;;;;;;0.00;0.00;;;;;;;;;;4995755;28;20038;-71
2023/10/17 10:44:39;;;;;;;0.00;0.00;;;;;;;;;;4993593;28;20053;-71
2023/10/17 10:47:06;;;;;;;0.00;0.00;;;;;;;;;;4971798;28;20038;-70
2023/10/17 10:49:32;;;;;;;0.00;0.00;;;;;;;;;;4978206;28;20035;-71
2023/10/17 10:51:58;;;;;;;0.00;0.00;;;;;;;;;;4982284;28;20107;-71
2023/10/17 10:54:27;;;;;;;0.00;0.00;;;;;;;;;;4974837;28;20379;-70
2023/10/17 10:56:53;;;;;;;0.00;0.00;;;;;;;;;;4974926;28;20046;-72
2023/10/17 10:59:23;;;;;;;0.00;0.00;;;;;;;;;;4991968;28;20504;-73
2023/10/17 11:01:49;;;;;;;0.00;0.00;;;;;;;;;;4981584;28;20037;-74
2023/10/17 11:04:15;;;;;;;0.00;0.00;;;;;;;;;;4978795;28;20395;-72
2023/10/17 11:06:41;;;;;;;0.00;0.00;;;;;;;;;;4978845;28;20089;-72
2023/10/17 11:09:11;;;;;;;0.00;0.00;;;;;;;;;;4975508;28;20030;-72
2023/10/17 11:11:46;;;;;;;0.00;0.00;;;;;;;;;;4979368;28;20030;-73
2023/10/17 11:14:19;;;;;;;0.00;0.00;;;;;;;;;;4980638;28;20916;-72
2023/10/17 11:16:51;;;;;;;0.00;0.00;;;;;;;;;;4979394;28;20034;-73
2023/10/17 11:19:21;;;;;;;0.00;0.00;;;;;;;;;;4982312;28;20034;-71
2023/10/17 11:21:58;;;;;;;0.00;0.00;;;;;;;;;;4976845;28;20097;-72
2023/10/17 11:24:25;;;;;;;0.00;0.00;;;;;;;;;;4981014;28;20720;-72
2023/10/17 11:26:52;;;;;;;0.00;0.00;;;;;;;;;;4980154;28;20387;-72
2023/10/17 11:29:18;;;;;;;0.00;0.00;;;;;;;;;;4983235;28;20050;-72
2023/10/17 11:31:44;;;;;;;0.00;0.00;;;;;;;;;;4983604;28;20026;-72
2023/10/17 11:34:13;;;;;;;0.00;0.00;;;;;;;;;;4988073;28;20033;-72
2023/10/17 11:36:51;;;;;;;0.00;0.00;;;;;;;;;;4991237;28;20231;-71
2023/10/17 11:39:18;;;;;;;0.00;0.00;;;;;;;;;;4984799;28;20068;-72
2023/10/17 11:41:54;;;;;;;0.00;0.00;;;;;;;;;;4984175;28;20451;-71
2023/10/17 11:44:23;;;;;;;0.00;0.00;;;;;;;;;;4978834;28;20034;-72
2023/10/17 11:47:02;;;;;;;0.00;0.00;;;;;;;;;;4984391;28;20375;-72
2023/10/17 11:49:35;;;;;;;0.00;0.00;;;;;;;;;;4983313;28;20050;-71
2023/10/17 11:52:04;;;;;;;0.00;0.00;;;;;;;;;;4988230;28;20343;-71
2023/10/17 11:54:30;;;;;;;0.00;0.00;;;;;;;;;;5004538;28;20045;-71
2023/10/17 11:57:09;;;;;;;0.00;0.00;;;;;;;;;;4983737;28;20661;-72
2023/10/17 11:59:35;;;;;;;0.00;0.00;;;;;;;;;;4986934;28;20113;-71
2023/10/17 12:02:03;;;;;;;0.00;0.00;;;;;;;;;;4984461;28;20496;-71
2023/10/17 12:04:29;;;;;;;0.00;0.00;;;;;;;;;;4989297;28;20040;-71
2023/10/17 12:06:55;;;;;;;0.00;0.00;;;;;;;;;;4983571;28;20062;-71
2023/10/17 12:11:47;;;;;;;0.00;0.00;;;;;;;;;;4989847;28;20026;-71
2023/10/17 12:14:20;;;;;;;0.00;0.00;;;;;;;;;;4981515;28;20034;-72
2023/10/17 12:16:48;;;;;;;0.00;0.00;;;;;;;;;;4983561;28;20041;-70
2023/10/17 12:19:16;;;;;;;0.00;0.00;;;;;;;;;;4985893;28;20156;-71
2023/10/17 12:21:43;;;;;;;0.00;0.00;;;;;;;;;;4986171;28;20038;-71
2023/10/17 12:24:12;;;;;;;0.00;0.00;;;;;;;;;;4991231;28;20081;-71
2023/10/17 12:26:38;;;;;;;0.00;0.00;;;;;;;;;;4983808;28;20039;-71
2023/10/17 12:29:04;;;;;;;0.00;0.00;;;;;;;;;;4980685;28;20194;-70
2023/10/17 12:31:29;;;;;;;0.00;0.00;;;;;;;;;;4984199;28;20037;-72
2023/10/17 12:33:55;;;;;;;0.00;0.00;;;;;;;;;;4985712;28;20041;-71
2023/10/17 12:36:22;;;;;;;0.00;0.00;;;;;;;;;;4981364;28;20043;-71
2023/10/17 12:38:49;;;;;;;0.00;0.00;;;;;;;;;;4986393;28;20772;-70
2023/10/17 12:41:15;;;;;;;0.00;0.00;;;;;;;;;;4980601;28;20042;-71
2023/10/17 12:43:42;;;;;;;0.00;0.00;;;;;;;;;;4987146;28;20773;-71
2023/10/17 12:46:10;;;;;;;0.00;0.00;;;;;;;;;;4985759;28;20120;-70
2023/10/17 12:48:36;;;;;;;0.00;0.00;;;;;;;;;;4981892;28;20089;-71
2023/10/17 12:51:11;;;;;;;0.00;0.00;;;;;;;;;;4984088;28;20042;-70
2023/10/17 12:53:38;;;;;;;0.00;0.00;;;;;;;;;;4987769;28;20034;-71
2023/10/17 12:56:05;;;;;;;0.00;0.00;;;;;;;;;;4981533;28;20050;-71
2023/10/17 12:58:32;;;;;;;0.00;0.00;;;;;;;;;;4982053;28;20043;-71
2023/10/17 13:00:58;;;;;;;0.00;0.00;;;;;;;;;;4983302;28;20048;-71
2023/10/17 13:03:25;;;;;;;0.00;0.00;;;;;;;;;;4980985;28;20049;-71
2023/10/17 13:05:51;;;;;;;0.00;0.00;;;;;;;;;;4983161;28;20112;-71
2023/10/17 13:08:17;;;;;;;0.00;0.00;;;;;;;;;;4985394;28;20121;-71
2023/10/17 13:10:43;;;;;;;0.00;0.00;;;;;;;;;;4984557;28;20050;-71
2023/10/17 13:13:11;;;;;;;0.00;0.00;;;;;;;;;;4987846;28;20092;-70
2023/10/17 13:15:37;;;;;;;0.00;0.00;;;;;;;;;;4984472;28;20550;-70
2023/10/17 13:18:06;;;;;;;0.00;0.00;;;;;;;;;;4978760;28;20044;-70
2023/10/17 13:20:33;;;;;;;0.00;0.00;;;;;;;;;;4992620;28;20070;-69
2023/10/17 13:23:03;;;;;;;0.00;0.00;;;;;;;;;;4988967;28;20034;-70
2023/10/17 13:25:33;;;;;;;0.00;0.00;;;;;;;;;;4991751;28;20858;-70
2023/10/17 13:27:59;;;;;;;0.00;0.00;;;;;;;;;;4986394;28;20056;-70
2023/10/17 13:30:26;;;;;;;0.00;0.00;;;;;;;;;;4983456;28;20034;-70
2023/10/17 13:32:52;;;;;;;0.00;0.00;;;;;;;;;;4991216;28;20119;-70
2023/10/17 13:35:22;;;;;;;0.00;0.00;;;;;;;;;;4984096;28;20410;-70
2023/10/17 13:37:51;;;;;;;0.00;0.00;;;;;;;;;;4984725;28;20571;-70
2023/10/17 13:40:19;;;;;;;0.00;0.00;;;;;;;;;;4977600;28;20030;-70
2023/10/17 13:42:46;;;;;;;0.00;0.00;;;;;;;;;;4981363;28;20034;-69
2023/10/17 13:45:13;;;;;;;0.00;0.00;;;;;;;;;;4979390;28;20089;-69
2023/10/17 13:47:43;;;;;;;0.00;0.00;;;;;;;;;;4977336;28;20502;-69
2023/10/17 13:50:15;;;;;;;0.00;0.00;;;;;;;;;;4975460;28;20494;-69
2023/10/17 13:52:41;;;;;;;0.00;0.00;;;;;;;;;;4976522;28;20041;-69
2023/10/17 13:55:09;;;;;;;0.00;0.00;;;;;;;;;;4976786;28;20042;-69
2023/10/17 13:57:36;;;;;;;0.00;0.00;;;;;;;;;;4975406;28;20038;-69
2023/10/17 14:00:05;;;;;;;0.00;0.00;;;;;;;;;;4977327;28;20042;-69
2023/10/17 14:02:31;;;;;;;0.00;0.00;;;;;;;;;;4975513;28;20418;-69
2023/10/17 14:04:57;;;;;;;0.00;0.00;;;;;;;;;;4977513;28;20387;-69
2023/10/17 14:07:23;;;;;;;0.00;0.00;;;;;;;;;;4976448;28;20042;-68
2023/10/17 14:09:55;;;;;;;0.00;0.00;;;;;;;;;;4976952;28;20533;-69
2023/10/17 14:12:21;;;;;;;0.00;0.00;;;;;;;;;;4975700;28;20042;-69
2023/10/17 14:14:47;;;;;;;0.00;0.00;;;;;;;;;;4975611;28;20046;-69
2023/10/17 14:17:13;;;;;;;0.00;0.00;;;;;;;;;;4975067;28;20524;-69
2023/10/17 14:19:45;;;;;;;0.00;0.00;;;;;;;;;;4975758;28;20402;-69
2023/10/17 14:27:23;;;;;;;0.00;0.00;;;;;;;;;;4976992;28;20034;-70
2023/10/17 14:29:52;;;;;;;0.00;0.00;;;;;;;;;;4976007;28;20042;-70
2023/10/17 14:32:22;;;;;;;0.00;0.00;;;;;;;;;;4977315;28;20049;-70
2023/10/17 14:34:48;;;;;;;0.00;0.00;;;;;;;;;;4976630;28;20046;-70
2023/10/17 14:37:14;;;;;;;0.00;0.00;;;;;;;;;;4975015;28;20117;-69
2023/10/17 14:39:41;;;;;;;0.00;0.00;;;;;;;;;;4978221;28;20049;-70
2023/10/17 14:42:10;;;;;;;0.00;0.00;;;;;;;;;;4975034;28;20089;-70
2023/10/17 14:44:36;;;;;;;0.00;0.00;;;;;;;;;;4976020;28;20402;-69
2023/10/17 14:47:02;;;;;;;0.00;0.00;;;;;;;;;;4976918;28;20464;-70
2023/10/17 14:49:28;;;;;;;0.00;0.00;;;;;;;;;;4983398;28;20149;-70
2023/10/17 14:51:54;;;;;;;0.00;0.00;;;;;;;;;;4976123;28;20391;-69
2023/10/17 14:54:21;;;;;;;0.00;0.00;;;;;;;;;;4974316;28;20030;-70
2023/10/17 14:56:47;;;;;;;0.00;0.00;;;;;;;;;;4976939;28;20038;-70
2023/10/17 14:59:13;;;;;;;0.00;0.00;;;;;;;;;;4973700;28;20521;-70
2023/10/17 15:01:43;;;;;;;0.00;0.00;;;;;;;;;;4976707;28;20039;-70
2023/10/17 15:04:10;;;;;;;0.00;0.00;;;;;;;;;;4969737;28;20173;-70
2023/10/17 15:06:39;;;;;;;0.00;0.00;;;;;;;;;;4974279;28;20038;-70
2023/10/17 15:09:13;;;;;;;0.00;0.00;;;;;;;;;;4971449;28;20069;-69
2023/10/17 15:11:39;;;;;;;0.00;0.00;;;;;;;;;;4976286;28;21192;-71
2023/10/17 15:14:05;;;;;;;0.00;0.00;;;;;;;;;;4973861;28;20042;-70
2023/10/17 15:16:31;;;;;;;0.00;0.00;;;;;;;;;;4975424;28;20097;-70
2023/10/17 15:18:57;;;;;;;0.00;0.00;;;;;;;;;;4976662;28;20038;-70
2023/10/17 15:21:23;;;;;;;0.00;0.00;;;;;;;;;;4976819;28;20098;-70
2023/10/17 15:23:53;;;;;;;0.00;0.00;;;;;;;;;;4975956;28;20034;-70
2023/10/17 15:26:21;;;;;;;0.00;0.00;;;;;;;;;;4974888;28;20125;-70
2023/10/17 15:28:48;;;;;;;0.00;0.00;;;;;;;;;;4980714;28;20397;-70
2023/10/17 15:31:14;;;;;;;0.00;0.00;;;;;;;;;;4972980;28;20129;-73
2023/10/17 15:33:41;;;;;;;0.00;0.00;;;;;;;;;;4978942;28;20042;-71
2023/10/17 15:36:12;;;;;;;0.00;0.00;;;;;;;;;;4975378;28;20046;-70
2023/10/17 15:38:41;;;;;;;0.00;0.00;;;;;;;;;;4977429;28;20632;-70
2023/10/17 15:41:10;;;;;;;0.00;0.00;;;;;;;;;;4975534;28;20077;-70
2023/10/17 15:43:36;;;;;;;0.00;0.00;;;;;;;;;;4977075;28;20050;-70
2023/10/17 15:46:03;;;;;;;0.00;0.00;;;;;;;;;;4981558;28;20042;-68
2023/10/17 15:48:29;;;;;;;0.00;0.00;;;;;;;;;;4976023;28;20035;-69
2023/10/17 15:50:56;;;;;;;0.00;0.00;;;;;;;;;;4975511;28;20097;-70
2023/10/17 15:53:25;;;;;;;0.00;0.00;;;;;;;;;;4979022;28;20057;-68
2023/10/17 15:55:52;;;;;;;0.00;0.00;;;;;;;;;;4972425;28;20043;-70
2023/10/17 15:58:19;;;;;;;0.00;0.00;;;;;;;;;;4972390;28;20540;-70
2023/10/17 16:00:46;;;;;;;0.00;0.00;;;;;;;;;;4972958;28;20096;-70
2023/10/17 16:03:12;;;;;;;0.00;0.00;;;;;;;;;;4973977;28;20108;-72
2023/10/17 16:05:38;;;;;;;0.00;0.00;;;;;;;;;;4976467;28;20123;-70
2023/10/17 16:08:05;;;;;;;0.00;0.00;;;;;;;;;;4977375;28;20436;-69
2023/10/17 16:10:31;;;;;;;0.00;0.00;;;;;;;;;;4975640;28;20169;-71
2023/10/17 16:12:57;;;;;;;0.00;0.00;;;;;;;;;;4982656;28;20057;-70
2023/10/17 16:15:24;;;;;;;0.00;0.00;;;;;;;;;;4991309;28;21963;-70
2023/10/17 16:17:50;;;;;;;0.00;0.00;;;;;;;;;;4984662;28;20100;-70
2023/10/17 16:20:17;;;;;;;0.00;0.00;;;;;;;;;;4992837;28;20046;-70
2023/10/17 16:22:42;;;;;;;0.00;0.00;;;;;;;;;;4980532;28;20034;-70
2023/10/17 16:25:11;;;;;;;0.00;0.00;;;;;;;;;;4984909;28;20043;-70
2023/10/17 16:27:37;;;;;;;0.00;0.00;;;;;;;;;;4987862;28;20038;-70
2023/10/17 16:30:05;;;;;;;0.00;0.00;;;;;;;;;;4977870;28;20046;-70
2023/10/17 16:32:38;;;;;;;0.00;0.00;;;;;;;;;;4974288;28;20045;-71
2023/10/17 16:35:04;;;;;;;0.00;0.00;;;;;;;;;;4982366;28;20038;-71
2023/10/17 16:37:34;;;;;;;0.00;0.00;;;;;;;;;;4978473;28;20044;-71
2023/10/17 16:40:00;;;;;;;0.00;0.00;;;;;;;;;;4977622;28;20045;-71
2023/10/17 16:42:26;;;;;;;0.00;0.00;;;;;;;;;;4979290;28;20085;-71
2023/10/17 16:44:53;;;;;;;0.00;0.00;;;;;;;;;;4980215;28;20046;-71
2023/10/17 16:47:25;;;;;;;0.00;0.00;;;;;;;;;;4977314;28;20045;-71
2023/10/17 16:49:52;;;;;;;0.00;0.00;;;;;;;;;;4984070;28;20050;-70
2023/10/17 16:52:18;;;;;;;0.00;0.00;;;;;;;;;;4976130;28;20742;-71
2023/10/17 16:54:46;;;;;;;0.00;0.00;;;;;;;;;;4977449;28;20141;-71
2023/10/17 16:57:12;;;;;;;0.00;0.00;;;;;;;;;;4977861;28;20034;-70
2023/10/17 16:59:41;;;;;;;0.00;0.00;;;;;;;;;;4978903;28;20486;-69
2023/10/17 17:02:07;;;;;;;0.00;0.00;;;;;;;;;;4979361;28;20084;-67
2023/10/17 17:04:33;;;;;;;0.00;0.00;;;;;;;;;;4980141;28;20045;-67
2023/10/17 17:06:59;;;;;;;0.00;0.00;;;;;;;;;;4980294;28;20809;-70
2023/10/17 17:09:27;;;;;;;0.00;0.00;;;;;;;;;;4979732;28;20756;-71
2023/10/17 17:11:56;;;;;;;0.00;0.00;;;;;;;;;;4984259;28;20038;-70
2023/10/17 17:14:22;;;;;;;0.00;0.00;;;;;;;;;;4977471;28;20058;-70
2023/10/17 17:16:49;;;;;;;0.00;0.00;;;;;;;;;;4977963;28;20049;-70